createdAt,value
2022-11-19T00:02:25.837Z,5.70
2022-11-19T00:07:22.318Z,5.70
2022-11-19T00:09:52.075Z,5.70
2022-11-19T00:15:11.509Z,5.70
2022-11-19T00:17:44.633Z,5.70
2022-11-19T00:20:14.267Z,5.70
2022-11-19T00:25:13.226Z,5.70
2022-11-19T00:30:40.338Z,5.70
2022-11-19T00:32:59.558Z,5.60
2022-11-19T00:37:56.053Z,5.70
2022-11-19T00:40:25.491Z,5.70
2022-11-19T00:43:07.432Z,5.70
2022-11-19T00:45:36.351Z,5.70
2022-11-19T00:48:04.626Z,5.60
2022-11-19T00:55:32.195Z,5.90
2022-11-19T01:00:28.791Z,5.60
2022-11-19T01:02:56.899Z,5.60
2022-11-19T01:05:25.655Z,5.60
2022-11-19T01:07:54.190Z,5.60
2022-11-19T01:10:22.493Z,5.60
2022-11-19T01:13:09.656Z,5.60
2022-11-19T01:15:37.703Z,5.60
2022-11-19T01:18:05.844Z,5.60
2022-11-19T01:20:34.211Z,5.60
2022-11-19T01:23:02.464Z,5.60
2022-11-19T01:25:31.003Z,5.60
2022-11-19T01:28:00.418Z,5.40
2022-11-19T01:30:28.579Z,5.40
2022-11-19T01:32:56.600Z,5.20
2022-11-19T01:35:24.713Z,5.00
2022-11-19T01:37:52.963Z,4.80
2022-11-19T01:40:21.258Z,4.70
2022-11-19T01:42:53.841Z,4.60
2022-11-19T01:45:33.555Z,4.60
2022-11-19T01:48:05.574Z,4.50
2022-11-19T01:50:38.272Z,4.40
2022-11-19T01:53:09.424Z,4.30
2022-11-19T01:55:39.126Z,4.30
2022-11-19T01:58:08.276Z,4.20
2022-11-19T02:00:39.407Z,4.20
2022-11-19T02:03:07.717Z,4.10
2022-11-19T02:05:38.155Z,4.10
2022-11-19T02:11:23.518Z,4.00
2022-11-19T02:14:02.977Z,3.90
2022-11-19T02:16:38.296Z,3.90
2022-11-19T02:19:20.757Z,3.80
2022-11-19T02:22:03.711Z,3.80
2022-11-19T02:24:45.898Z,3.70
2022-11-19T02:27:52.725Z,3.70
2022-11-19T02:30:22.543Z,3.60
2022-11-19T02:33:00.006Z,3.60
2022-11-19T02:35:42.654Z,3.50
2022-11-19T02:38:19.718Z,3.40
2022-11-19T02:40:53.381Z,3.40
2022-11-19T02:43:25.954Z,3.30
2022-11-19T02:45:59.561Z,3.10
2022-11-19T02:48:32.730Z,3.10
2022-11-19T02:51:03.694Z,3.10
2022-11-19T02:53:32.944Z,3.00
2022-11-19T02:56:12.142Z,2.90
2022-11-19T02:59:01.649Z,2.80
2022-11-19T03:01:50.576Z,2.80
2022-11-19T03:04:32.555Z,2.80
2022-11-19T03:07:06.377Z,2.80
2022-11-19T03:09:37.350Z,2.80
2022-11-19T03:12:17.245Z,2.80
2022-11-19T03:15:10.696Z,2.80
2022-11-19T03:17:58.355Z,2.60
2022-11-19T03:20:29.275Z,2.60
2022-11-19T03:23:01.894Z,2.50
2022-11-19T03:25:36.125Z,2.40
2022-11-19T03:28:09.394Z,2.50
2022-11-19T03:30:39.321Z,2.40
2022-11-19T03:33:12.693Z,2.40
2022-11-19T03:35:44.982Z,2.30
2022-11-19T03:38:18.369Z,2.30
2022-11-19T03:40:48.894Z,2.20
2022-11-19T03:43:19.899Z,2.20
2022-11-19T03:45:50.315Z,2.30
2022-11-19T03:48:23.344Z,2.20
2022-11-19T03:50:55.295Z,2.20
2022-11-19T03:53:23.927Z,2.20
2022-11-19T03:55:57.623Z,2.20
2022-11-19T03:58:26.769Z,2.20
2022-11-19T04:03:24.643Z,2.10
2022-11-19T04:08:21.218Z,2.10
2022-11-19T04:19:18.184Z,1.80
2022-11-19T04:22:06.508Z,1.90
2022-11-19T04:24:54.534Z,1.80
2022-11-19T04:27:22.622Z,1.70
2022-11-19T04:29:50.614Z,1.70
2022-11-19T04:32:18.718Z,1.70
2022-11-19T04:34:48.067Z,1.60
2022-11-19T04:39:44.493Z,1.40
2022-11-19T04:42:12.504Z,1.40
2022-11-19T04:44:41.554Z,1.20
2022-11-19T04:52:07.900Z,1.00
2022-11-19T04:57:04.460Z,0.90
2022-11-19T05:02:00.918Z,0.80
2022-11-19T05:04:28.930Z,0.70
2022-11-19T05:09:26.860Z,0.60
2022-11-19T05:19:26.558Z,0.60
2022-11-19T05:21:54.555Z,0.50
2022-11-19T05:26:52.435Z,0.50
2022-11-19T05:29:20.810Z,0.50
2022-11-19T05:36:45.813Z,0.40
2022-11-19T05:39:18.803Z,0.40
2022-11-19T05:44:20.141Z,0.40
2022-11-19T05:46:48.275Z,0.40
2022-11-19T05:56:42.062Z,0.40
2022-11-19T05:59:10.120Z,0.40
2022-11-19T06:01:39.503Z,0.40
2022-11-19T06:04:07.575Z,0.40
2022-11-19T06:06:35.558Z,0.40
2022-11-19T06:09:03.845Z,0.40
2022-11-19T06:11:50.345Z,0.40
2022-11-19T06:14:21.997Z,0.40
2022-11-19T06:16:52.366Z,0.40
2022-11-19T06:29:19.062Z,0.40
2022-11-19T06:31:48.004Z,0.40
2022-11-19T06:34:17.430Z,0.40
2022-11-19T06:51:49.390Z,0.40
2022-11-19T07:04:11.940Z,0.20
2022-11-19T07:09:09.911Z,0.30
2022-11-19T07:11:37.983Z,0.30
2022-11-19T07:14:06.009Z,0.30
2022-11-19T07:16:35.876Z,0.40
2022-11-19T07:19:05.595Z,0.40
2022-11-19T07:21:34.423Z,0.40
2022-11-19T07:24:05.842Z,0.40
2022-11-19T07:26:36.779Z,0.50
2022-11-19T07:29:07.775Z,0.50
2022-11-19T07:34:07.616Z,0.40
2022-11-19T07:39:04.482Z,0.40
2022-11-19T07:44:20.072Z,0.50
2022-11-19T07:49:16.646Z,0.40
2022-11-19T07:51:44.974Z,0.40
2022-11-19T07:54:14.316Z,0.40
2022-11-19T07:56:42.322Z,0.40
2022-11-19T08:01:40.319Z,0.60
2022-11-19T08:09:05.733Z,0.40
2022-11-19T08:11:33.876Z,0.50
2022-11-19T08:19:18.888Z,0.50
2022-11-19T08:21:48.238Z,0.50
2022-11-19T08:24:19.735Z,0.50
2022-11-19T08:26:48.870Z,0.60
2022-11-19T08:29:20.013Z,0.60
2022-11-19T08:31:49.292Z,0.60
2022-11-19T08:34:19.687Z,0.50
2022-11-19T08:36:47.920Z,0.50
2022-11-19T08:42:01.659Z,0.50
2022-11-19T08:44:30.075Z,0.50
2022-11-19T08:49:28.292Z,0.60
2022-11-19T08:51:57.633Z,0.70
2022-11-19T08:56:54.363Z,0.80
2022-11-19T09:01:51.347Z,0.80
2022-11-19T09:06:49.625Z,0.90
2022-11-19T09:09:17.902Z,0.90
2022-11-19T09:11:46.020Z,0.90
2022-11-19T09:14:14.030Z,0.90
2022-11-19T09:19:10.524Z,1.00
2022-11-19T09:24:08.611Z,1.00
2022-11-19T09:26:36.793Z,1.10
2022-11-19T09:29:04.785Z,1.20
2022-11-19T09:31:32.762Z,1.20
2022-11-19T09:34:00.800Z,1.30
2022-11-19T09:36:28.749Z,1.30
2022-11-19T09:38:58.514Z,1.40
2022-11-19T09:41:45.082Z,1.50
2022-11-19T09:44:26.744Z,1.50
2022-11-19T09:47:04.293Z,1.60
2022-11-19T09:49:38.456Z,1.60
2022-11-19T09:52:10.849Z,1.60
2022-11-19T09:54:45.417Z,1.70
2022-11-19T09:57:19.154Z,1.60
2022-11-19T09:59:49.039Z,1.60
2022-11-19T10:02:19.205Z,1.50
2022-11-19T10:04:48.548Z,1.50
2022-11-19T10:07:27.665Z,1.40
2022-11-19T10:10:12.542Z,1.30
2022-11-19T10:12:57.008Z,1.10
2022-11-19T10:15:34.509Z,1.10
2022-11-19T10:18:13.451Z,1.10
2022-11-19T10:20:55.408Z,1.00
2022-11-19T10:23:32.410Z,1.10
2022-11-19T10:26:05.168Z,1.10
2022-11-19T10:28:40.683Z,1.10
2022-11-19T10:31:14.668Z,1.20
2022-11-19T10:33:48.524Z,1.40
2022-11-19T10:36:23.658Z,1.30
2022-11-19T10:38:56.603Z,1.50
2022-11-19T10:41:33.411Z,1.50
2022-11-19T10:44:10.096Z,1.40
2022-11-19T10:46:38.647Z,1.50
2022-11-19T10:49:11.600Z,1.40
2022-11-19T10:51:42.428Z,1.30
2022-11-19T10:54:22.746Z,1.30
2022-11-19T10:56:52.576Z,1.20
2022-11-19T10:59:25.266Z,1.10
2022-11-19T11:01:58.440Z,1.00
2022-11-19T11:04:28.247Z,1.00
2022-11-19T11:06:58.023Z,1.10
2022-11-19T11:09:31.186Z,1.10
2022-11-19T11:12:19.878Z,1.20
2022-11-19T11:14:55.823Z,1.20
2022-11-19T11:17:26.290Z,1.20
2022-11-19T11:19:59.917Z,1.20
2022-11-19T11:22:28.912Z,1.20
2022-11-19T11:25:00.453Z,1.20
2022-11-19T11:27:33.527Z,1.20
2022-11-19T11:30:19.008Z,1.20
2022-11-19T11:35:33.410Z,1.20
2022-11-19T11:38:02.690Z,1.10
2022-11-19T11:40:32.234Z,1.20
2022-11-19T11:43:00.425Z,1.20
2022-11-19T11:45:33.546Z,1.10
2022-11-19T11:48:08.810Z,1.10
2022-11-19T11:50:38.211Z,1.10
2022-11-19T11:53:10.703Z,1.10
2022-11-19T11:58:25.771Z,1.10
2022-11-19T12:00:57.351Z,1.10
2022-11-19T12:03:25.377Z,1.10
2022-11-19T12:06:05.227Z,1.10
2022-11-19T12:08:48.594Z,1.10
2022-11-19T12:11:23.994Z,1.20
2022-11-19T12:13:57.988Z,1.20
2022-11-19T12:16:45.714Z,1.10
2022-11-19T12:19:25.499Z,1.00
2022-11-19T12:22:08.473Z,1.00
2022-11-19T12:25:00.899Z,1.00
2022-11-19T12:27:34.257Z,1.00
2022-11-19T12:30:07.130Z,1.10
2022-11-19T12:32:59.828Z,1.10
2022-11-19T12:35:42.348Z,1.00
2022-11-19T12:38:25.276Z,1.10
2022-11-19T12:41:01.026Z,1.10
2022-11-19T12:43:54.775Z,1.10
2022-11-19T12:46:35.937Z,2.40
2022-11-19T12:49:37.830Z,1.10
2022-11-19T12:52:22.867Z,1.10
2022-11-19T12:54:59.411Z,1.10
2022-11-19T12:57:41.581Z,1.20
2022-11-19T13:00:16.894Z,1.10
2022-11-19T13:02:58.217Z,1.10
2022-11-19T13:05:41.053Z,1.20
2022-11-19T13:08:17.677Z,1.20
2022-11-19T13:10:50.133Z,1.20
2022-11-19T13:13:23.551Z,1.20
2022-11-19T13:15:58.318Z,1.10
2022-11-19T13:18:31.872Z,1.10
2022-11-19T13:21:04.362Z,1.00
2022-11-19T13:23:38.646Z,1.00
2022-11-19T13:26:12.059Z,1.00
2022-11-19T13:28:47.619Z,1.00
2022-11-19T13:31:23.706Z,1.00
2022-11-19T13:33:57.308Z,1.00
2022-11-19T13:36:29.439Z,1.00
2022-11-19T13:39:02.409Z,0.90
2022-11-19T13:41:34.923Z,1.00
2022-11-19T13:46:54.863Z,0.90
2022-11-19T13:49:28.846Z,0.90
2022-11-19T13:52:01.026Z,0.90
2022-11-19T13:54:37.612Z,0.90
2022-11-19T13:57:07.635Z,1.00
2022-11-19T13:59:39.285Z,1.00
2022-11-19T14:02:49.321Z,1.00
2022-11-19T14:05:42.026Z,1.00
2022-11-19T14:08:21.947Z,1.00
2022-11-19T14:11:04.188Z,1.00
2022-11-19T14:13:51.884Z,1.00
2022-11-19T14:16:49.129Z,1.00
2022-11-19T14:19:37.033Z,0.90
2022-11-19T14:22:49.858Z,1.00
2022-11-19T14:26:00.405Z,1.00
2022-11-19T14:28:51.437Z,1.00
2022-11-19T14:31:20.620Z,0.90
2022-11-19T14:34:04.102Z,0.90
2022-11-19T14:36:44.754Z,0.90
2022-11-19T14:39:22.706Z,0.90
2022-11-19T14:42:15.715Z,0.80
2022-11-19T14:44:45.673Z,0.80
2022-11-19T14:47:35.336Z,0.80
2022-11-19T14:50:08.114Z,0.80
2022-11-19T14:52:39.877Z,0.80
2022-11-19T14:55:21.585Z,0.80
2022-11-19T14:57:59.240Z,0.80
2022-11-19T15:00:32.417Z,0.80
2022-11-19T15:03:02.084Z,0.80
2022-11-19T15:05:34.294Z,0.80
2022-11-19T15:08:31.704Z,0.70
2022-11-19T15:11:08.129Z,0.70
2022-11-19T15:16:11.848Z,0.70
2022-11-19T15:19:27.235Z,0.70
2022-11-19T15:22:32.424Z,0.70
2022-11-19T15:25:16.026Z,0.70
2022-11-19T15:27:59.898Z,0.70
2022-11-19T15:30:39.356Z,0.60
2022-11-19T15:33:34.436Z,0.60
2022-11-19T15:36:27.456Z,0.70
2022-11-19T15:39:01.441Z,0.70
2022-11-19T15:41:32.540Z,0.60
2022-11-19T15:44:04.167Z,0.70
2022-11-19T15:46:40.258Z,0.70
2022-11-19T15:49:15.817Z,0.70
2022-11-19T15:52:03.605Z,0.70
2022-11-19T15:54:33.059Z,0.60
2022-11-19T15:57:04.513Z,0.70
2022-11-19T15:59:36.566Z,0.70
2022-11-19T16:02:07.147Z,0.70
2022-11-19T16:04:40.398Z,0.70
2022-11-19T16:07:10.997Z,0.60
2022-11-19T16:09:39.419Z,0.70
2022-11-19T16:12:25.134Z,0.70
2022-11-19T16:15:11.834Z,0.70
2022-11-19T16:17:44.940Z,0.60
2022-11-19T16:20:23.839Z,0.70
2022-11-19T16:22:57.870Z,0.70
2022-11-19T16:25:35.131Z,0.70
2022-11-19T16:28:07.366Z,0.70
2022-11-19T16:30:46.190Z,0.70
2022-11-19T16:33:20.102Z,0.70
2022-11-19T16:35:53.262Z,0.90
2022-11-19T16:38:27.511Z,0.60
2022-11-19T16:43:44.426Z,3.30
2022-11-19T16:46:15.917Z,0.70
2022-11-19T16:49:03.371Z,0.70
2022-11-19T16:51:41.551Z,0.60
2022-11-19T16:54:11.637Z,0.60
2022-11-19T16:56:43.736Z,0.60
2022-11-19T16:59:20.432Z,0.60
2022-11-19T17:01:56.000Z,0.60
2022-11-19T17:04:29.883Z,0.60
2022-11-19T17:07:00.135Z,0.20
2022-11-19T17:09:36.032Z,0.60
2022-11-19T17:14:51.539Z,0.60
2022-11-19T17:17:29.880Z,0.60
2022-11-19T17:22:33.262Z,0.60
2022-11-19T17:25:04.229Z,0.60
2022-11-19T17:27:34.603Z,0.60
2022-11-19T17:30:05.678Z,0.60
2022-11-19T17:32:35.968Z,0.60
2022-11-19T17:37:33.822Z,0.70
2022-11-19T17:42:47.970Z,0.60
2022-11-19T17:45:16.301Z,0.60
2022-11-19T17:47:44.632Z,0.70
2022-11-19T17:52:42.455Z,0.70
2022-11-19T17:55:17.871Z,0.70
2022-11-19T18:00:15.371Z,0.70
2022-11-19T18:05:16.255Z,0.70
2022-11-19T18:07:46.394Z,0.70
2022-11-19T18:10:14.630Z,0.70
2022-11-19T18:15:15.364Z,0.70
2022-11-19T18:20:12.358Z,0.70
2022-11-19T18:25:15.425Z,0.70
2022-11-19T18:27:43.465Z,0.70
2022-11-19T18:30:12.631Z,0.70
2022-11-19T18:35:15.554Z,0.70
2022-11-19T18:37:43.771Z,0.70
2022-11-19T18:40:14.466Z,0.70
2022-11-19T18:55:28.376Z,0.70
2022-11-19T19:02:53.473Z,0.70
2022-11-19T19:12:48.823Z,0.60
2022-11-19T19:27:39.594Z,0.60
2022-11-19T19:30:10.886Z,0.60
2022-11-19T19:35:08.459Z,0.60
2022-11-19T19:40:07.420Z,0.50
2022-11-19T19:45:12.030Z,0.60
2022-11-19T19:50:08.955Z,0.50
2022-11-19T19:55:06.214Z,0.60
2022-11-19T20:02:32.829Z,0.60
2022-11-19T20:09:57.702Z,0.70
2022-11-19T20:17:44.354Z,0.70
2022-11-19T20:20:13.417Z,0.70
2022-11-19T20:30:09.469Z,0.70
2022-11-19T20:32:37.902Z,0.70
2022-11-19T20:35:08.144Z,0.70
2022-11-19T20:37:36.404Z,0.70
2022-11-19T20:50:18.379Z,0.70
2022-11-19T21:00:13.440Z,0.80
2022-11-19T21:07:40.382Z,0.80
2022-11-19T21:12:57.461Z,0.80
2022-11-19T21:20:24.919Z,0.70
2022-11-19T21:22:55.951Z,0.90
2022-11-19T21:25:24.391Z,0.70
2022-11-19T21:27:52.493Z,0.80
2022-11-19T21:35:17.946Z,0.80
2022-11-19T21:37:45.986Z,0.70
2022-11-19T21:40:15.694Z,0.70
2022-11-19T21:45:12.556Z,0.70
2022-11-19T21:55:12.812Z,0.70
2022-11-19T21:57:46.156Z,0.70
2022-11-19T22:00:16.288Z,0.80
2022-11-19T22:12:46.738Z,0.70
2022-11-19T22:30:15.498Z,0.70
2022-11-19T22:40:13.229Z,0.70
2022-11-19T22:45:11.466Z,1.20
2022-11-19T22:47:41.240Z,0.80
2022-11-19T22:50:10.093Z,1.50
2022-11-19T22:55:08.135Z,0.80
2022-11-19T23:00:08.809Z,0.80
2022-11-19T23:05:07.039Z,0.80
2022-11-19T23:07:35.087Z,0.80
2022-11-19T23:12:48.871Z,0.80
2022-11-19T23:15:16.914Z,0.80
2022-11-19T23:20:15.196Z,0.80
2022-11-19T23:27:39.996Z,0.70
2022-11-19T23:30:09.695Z,0.70
2022-11-19T23:35:06.565Z,0.70
2022-11-19T23:37:36.032Z,0.70
2022-11-19T23:52:25.927Z,0.70
2022-11-19T23:54:55.321Z,0.70
